createdAt,value
2023-04-12T00:00:52.609Z,72.85
2023-04-12T00:01:52.712Z,72.24
2023-04-12T00:02:52.633Z,72.34
2023-04-12T00:03:52.750Z,71.45
2023-04-12T00:04:52.580Z,71.83
2023-04-12T00:05:52.574Z,72.34
2023-04-12T00:06:52.555Z,71.72
2023-04-12T00:07:52.534Z,71.14
2023-04-12T00:08:52.560Z,71.86
2023-04-12T00:09:52.519Z,71.76
2023-04-12T00:10:52.512Z,71.66
2023-04-12T00:11:52.545Z,71.25
2023-04-12T00:12:52.475Z,72.78
2023-04-12T00:13:52.478Z,72.89
2023-04-12T00:14:52.507Z,72.27
2023-04-12T00:15:52.502Z,72.68
2023-04-12T00:16:52.446Z,72.48
2023-04-12T00:17:52.477Z,71.66
2023-04-12T00:18:52.449Z,71.66
2023-04-12T00:19:52.442Z,71.97
2023-04-12T00:20:52.430Z,72.38
2023-04-12T00:21:52.400Z,72.48
2023-04-12T00:22:52.378Z,73.19
2023-04-12T00:23:52.411Z,72.48
2023-04-12T00:24:52.356Z,72.27
2023-04-12T00:25:52.365Z,71.86
2023-04-12T00:26:52.369Z,71.55
2023-04-12T00:27:52.331Z,71.86
2023-04-12T00:28:52.325Z,71.55
2023-04-12T00:29:52.352Z,72.27
2023-04-12T00:30:52.330Z,72.27
2023-04-12T00:31:52.317Z,71.86
2023-04-12T00:32:52.304Z,72.17
2023-04-12T00:33:52.301Z,71.86
2023-04-12T00:34:52.275Z,71.45
2023-04-12T00:35:52.329Z,72.99
2023-04-12T00:36:52.233Z,72.99
2023-04-12T00:37:52.228Z,72.68
2023-04-12T00:38:52.240Z,72.68
2023-04-12T00:39:52.210Z,71.55
2023-04-12T00:40:52.216Z,72.38
2023-04-12T00:41:52.229Z,72.17
2023-04-12T00:42:52.170Z,71.97
2023-04-12T00:43:52.179Z,71.66
2023-04-12T00:44:52.150Z,72.48
2023-04-12T00:45:52.208Z,72.68
2023-04-12T00:46:52.183Z,72.58
2023-04-12T00:47:52.226Z,71.45
2023-04-12T00:48:52.118Z,72.58
2023-04-12T00:49:52.128Z,72.38
2023-04-12T00:50:52.129Z,71.86
2023-04-12T00:51:52.088Z,71.97
2023-04-12T00:52:52.158Z,71.97
2023-04-12T00:53:52.095Z,71.86
2023-04-12T00:54:52.065Z,72.55
2023-04-12T00:55:52.080Z,72.75
2023-04-12T00:56:52.026Z,71.11
2023-04-12T00:57:52.024Z,71.72
2023-04-12T00:58:52.005Z,71.62
2023-04-12T00:59:52.023Z,72.34
2023-04-12T01:00:52.015Z,72.24
2023-04-12T01:01:52.024Z,71.72
2023-04-12T01:02:52.058Z,72.75
2023-04-12T01:03:52.079Z,73.16
2023-04-12T01:04:51.961Z,70.80
2023-04-12T01:05:51.892Z,71.62
2023-04-12T01:06:51.929Z,72.44
2023-04-12T01:07:51.942Z,71.21
2023-04-12T01:08:51.915Z,71.21
2023-04-12T01:09:51.899Z,71.11
2023-04-12T01:10:51.878Z,71.31
2023-04-12T01:11:51.883Z,72.14
2023-04-12T01:12:51.857Z,71.52
2023-04-12T01:13:51.858Z,72.03
2023-04-12T01:14:51.839Z,72.03
2023-04-12T01:15:51.871Z,71.62
2023-04-12T01:16:51.833Z,71.86
2023-04-12T01:17:51.834Z,71.93
2023-04-12T01:18:51.753Z,72.03
2023-04-12T01:19:51.800Z,72.06
2023-04-12T01:20:51.791Z,71.97
2023-04-12T01:21:51.790Z,72.38
2023-04-12T01:22:51.761Z,71.93
2023-04-12T01:23:51.777Z,71.66
2023-04-12T01:24:51.734Z,72.24
2023-04-12T01:25:51.806Z,71.35
2023-04-12T01:26:51.734Z,72.06
2023-04-12T01:27:51.653Z,71.66
2023-04-12T01:28:51.695Z,71.66
2023-04-12T01:29:51.705Z,72.06
2023-04-12T01:30:51.680Z,71.55
2023-04-12T01:31:51.707Z,72.06
2023-04-12T01:32:51.701Z,72.27
2023-04-12T01:33:51.647Z,72.89
2023-04-12T01:34:51.649Z,71.86
2023-04-12T01:35:51.688Z,72.17
2023-04-12T01:36:51.633Z,71.97
2023-04-12T01:37:51.611Z,72.55
2023-04-12T01:38:51.599Z,71.35
2023-04-12T01:39:51.586Z,72.38
2023-04-12T01:40:51.584Z,72.27
2023-04-12T01:41:51.565Z,72.06
2023-04-12T01:42:51.571Z,72.48
2023-04-12T01:43:51.548Z,71.97
2023-04-12T01:44:51.574Z,72.17
2023-04-12T01:45:51.648Z,72.68
2023-04-12T01:46:51.527Z,72.48
2023-04-12T01:47:51.621Z,72.48
2023-04-12T01:48:51.498Z,72.48
2023-04-12T01:49:51.493Z,72.78
2023-04-12T01:50:51.502Z,72.38
2023-04-12T01:51:51.467Z,73.19
2023-04-12T01:52:51.594Z,72.78
2023-04-12T01:53:51.486Z,72.99
2023-04-12T01:54:51.440Z,72.78
2023-04-12T01:55:51.436Z,72.89
2023-04-12T01:56:51.411Z,72.58
2023-04-12T01:57:51.406Z,73.30
2023-04-12T01:58:51.408Z,73.50
2023-04-12T01:59:51.393Z,73.19
2023-04-12T02:00:51.438Z,73.36
2023-04-12T02:01:51.430Z,73.10
2023-04-12T02:02:51.485Z,73.57
2023-04-12T02:03:51.402Z,73.68
2023-04-12T02:04:51.354Z,73.36
2023-04-12T02:05:51.321Z,73.36
2023-04-12T02:06:51.314Z,73.78
2023-04-12T02:07:51.297Z,74.08
2023-04-12T02:08:51.297Z,73.98
2023-04-12T02:09:51.289Z,73.98
2023-04-12T02:10:51.282Z,74.53
2023-04-12T02:11:51.263Z,74.53
2023-04-12T02:12:51.248Z,74.53
2023-04-12T02:13:51.248Z,74.63
2023-04-12T02:14:51.243Z,74.60
2023-04-12T02:15:51.207Z,74.19
2023-04-12T02:16:51.221Z,74.19
2023-04-12T02:17:51.376Z,74.29
2023-04-12T02:18:51.202Z,73.98
2023-04-12T02:19:51.175Z,73.98
2023-04-12T02:20:51.401Z,74.08
2023-04-12T02:21:51.159Z,74.84
2023-04-12T02:22:52.966Z,74.74
2023-04-12T02:23:51.165Z,74.80
2023-04-12T02:24:51.152Z,74.32
2023-04-12T02:25:51.113Z,74.08
2023-04-12T02:26:51.123Z,74.19
2023-04-12T02:27:51.096Z,74.19
2023-04-12T02:28:51.091Z,74.53
2023-04-12T02:29:51.094Z,74.43
2023-04-12T02:30:51.082Z,74.53
2023-04-12T02:31:51.084Z,74.74
2023-04-12T02:32:51.095Z,74.94
2023-04-12T02:33:51.045Z,74.94
2023-04-12T02:34:51.031Z,75.04
2023-04-12T02:35:51.024Z,74.94
2023-04-12T02:36:51.024Z,75.25
2023-04-12T02:37:51.007Z,75.04
2023-04-12T02:38:51.006Z,74.94
2023-04-12T02:39:50.972Z,74.94
2023-04-12T02:40:50.962Z,75.15
2023-04-12T02:41:50.961Z,75.45
2023-04-12T02:42:50.961Z,76.07
2023-04-12T02:43:50.934Z,75.87
2023-04-12T02:44:50.933Z,76.07
2023-04-12T02:45:50.877Z,76.10
2023-04-12T02:46:50.938Z,76.07
2023-04-12T02:47:50.928Z,76.38
2023-04-12T02:48:50.897Z,76.58
2023-04-12T02:49:50.878Z,76.17
2023-04-12T02:50:50.840Z,76.17
2023-04-12T02:51:50.847Z,76.38
2023-04-12T02:52:50.855Z,76.38
2023-04-12T02:53:50.852Z,76.07
2023-04-12T02:54:50.829Z,76.38
2023-04-12T02:55:50.986Z,76.58
2023-04-12T02:56:50.807Z,76.89
2023-04-12T02:57:50.797Z,76.58
2023-04-12T02:58:50.803Z,76.79
2023-04-12T02:59:50.756Z,76.79
2023-04-12T03:00:50.798Z,77.20
2023-04-12T03:01:50.964Z,76.79
2023-04-12T03:02:50.847Z,77.10
2023-04-12T03:03:50.792Z,76.89
2023-04-12T03:04:50.714Z,77.10
2023-04-12T03:05:50.728Z,77.10
2023-04-12T03:06:50.706Z,76.58
2023-04-12T03:07:50.677Z,77.10
2023-04-12T03:08:50.687Z,77.00
2023-04-12T03:09:50.692Z,76.79
2023-04-12T03:10:50.673Z,76.58
2023-04-12T03:11:50.661Z,76.89
2023-04-12T03:12:50.630Z,76.89
2023-04-12T03:13:50.632Z,77.10
2023-04-12T03:14:50.624Z,76.79
2023-04-12T03:15:50.641Z,76.89
2023-04-12T03:16:50.604Z,77.40
2023-04-12T03:17:50.640Z,77.40
2023-04-12T03:18:50.612Z,77.65
2023-04-12T03:19:50.576Z,78.16
2023-04-12T03:20:50.573Z,78.06
2023-04-12T03:21:50.547Z,77.65
2023-04-12T03:22:50.552Z,77.95
2023-04-12T03:23:50.514Z,78.16
2023-04-12T03:24:50.538Z,78.57
2023-04-12T03:25:50.506Z,78.47
2023-04-12T03:26:50.507Z,78.67
2023-04-12T03:27:50.474Z,78.67
2023-04-12T03:28:50.476Z,78.27
2023-04-12T03:29:50.478Z,77.92
2023-04-12T03:30:50.469Z,78.02
2023-04-12T03:31:50.436Z,78.02
2023-04-12T03:32:50.445Z,77.71
2023-04-12T03:33:50.453Z,77.81
2023-04-12T03:34:50.455Z,77.92
2023-04-12T03:35:50.415Z,78.02
2023-04-12T03:36:50.569Z,78.16
2023-04-12T03:37:50.374Z,78.27
2023-04-12T03:38:50.370Z,78.47
2023-04-12T03:39:50.395Z,78.33
2023-04-12T03:40:50.371Z,78.57
2023-04-12T03:41:50.366Z,78.67
2023-04-12T03:42:50.337Z,78.57
2023-04-12T03:43:50.418Z,78.78
2023-04-12T03:44:50.316Z,78.78
2023-04-12T03:45:50.297Z,78.78
2023-04-12T03:46:50.365Z,78.47
2023-04-12T03:47:50.321Z,78.43
2023-04-12T03:48:50.263Z,78.47
2023-04-12T03:50:06.000Z,78.57
2023-04-12T03:50:50.261Z,78.98
2023-04-12T03:51:50.298Z,78.78
2023-04-12T03:52:50.248Z,78.78
2023-04-12T03:53:50.271Z,78.78
2023-04-12T03:54:50.263Z,78.78
2023-04-12T03:55:50.197Z,79.19
2023-04-12T03:56:50.283Z,79.19
2023-04-12T03:57:50.204Z,79.19
2023-04-12T03:58:50.227Z,79.29
2023-04-12T03:59:50.155Z,79.39
2023-04-12T04:00:50.162Z,79.43
2023-04-12T04:01:50.199Z,79.60
2023-04-12T04:02:50.179Z,79.84
2023-04-12T04:03:50.826Z,79.60
2023-04-12T04:04:50.196Z,79.43
2023-04-12T04:05:50.126Z,79.53
2023-04-12T04:06:50.079Z,79.53
2023-04-12T04:07:50.105Z,79.53
2023-04-12T04:08:50.078Z,79.80
2023-04-12T04:09:50.183Z,79.60
2023-04-12T04:10:50.050Z,79.74
2023-04-12T04:11:50.034Z,79.84
2023-04-12T04:12:50.014Z,79.80
2023-04-12T04:13:49.946Z,79.91
2023-04-12T04:14:49.983Z,80.21
2023-04-12T04:15:49.912Z,79.91
2023-04-12T04:16:49.941Z,79.80
2023-04-12T04:17:49.898Z,79.80
2023-04-12T04:18:49.956Z,79.80
2023-04-12T04:19:49.932Z,79.91
2023-04-12T04:20:49.887Z,79.91
2023-04-12T04:21:49.858Z,80.11
2023-04-12T04:22:49.866Z,80.32
2023-04-12T04:23:49.828Z,80.21
2023-04-12T04:24:49.830Z,80.52
2023-04-12T04:25:49.817Z,80.73
2023-04-12T04:26:49.825Z,80.52
2023-04-12T04:27:49.800Z,80.52
2023-04-12T04:28:49.788Z,80.42
2023-04-12T04:29:49.796Z,80.32
2023-04-12T04:30:49.776Z,80.93
2023-04-12T04:31:49.834Z,80.63
2023-04-12T04:32:49.927Z,80.42
2023-04-12T04:33:49.742Z,80.32
2023-04-12T04:34:49.729Z,80.11
2023-04-12T04:35:49.724Z,80.11
2023-04-12T04:36:49.734Z,80.42
2023-04-12T04:37:49.721Z,80.63
2023-04-12T04:38:49.681Z,80.83
2023-04-12T04:39:49.658Z,80.97
2023-04-12T04:40:49.665Z,81.18
2023-04-12T04:41:49.656Z,81.14
2023-04-12T04:42:49.664Z,80.83
2023-04-12T04:43:49.626Z,80.63
2023-04-12T04:44:49.653Z,80.73
2023-04-12T04:45:49.729Z,80.52
2023-04-12T04:46:49.676Z,80.63
2023-04-12T04:47:49.660Z,81.14
2023-04-12T04:48:49.574Z,81.38
2023-04-12T04:49:49.564Z,81.59
2023-04-12T04:50:49.587Z,81.79
2023-04-12T04:51:49.531Z,81.90
2023-04-12T04:52:49.549Z,81.90
2023-04-12T04:53:49.602Z,82.31
2023-04-12T04:54:49.510Z,81.90
2023-04-12T04:55:49.512Z,82.10
2023-04-12T04:56:49.525Z,82.00
2023-04-12T04:57:49.487Z,82.10
2023-04-12T04:58:49.478Z,81.59
2023-04-12T04:59:49.522Z,81.28
2023-04-12T05:00:49.487Z,81.48
2023-04-12T05:01:49.561Z,81.90
2023-04-12T05:02:49.535Z,81.90
2023-04-12T05:03:49.522Z,82.00
2023-04-12T05:04:49.420Z,82.10
2023-04-12T05:05:49.434Z,82.20
2023-04-12T05:06:49.389Z,82.41
2023-04-12T05:07:49.361Z,82.51
2023-04-12T05:08:49.438Z,82.20
2023-04-12T05:09:49.370Z,81.90
2023-04-12T05:10:49.343Z,81.90
2023-04-12T05:11:49.364Z,82.51
2023-04-12T05:12:49.335Z,82.10
2023-04-12T05:13:49.307Z,82.10
2023-04-12T05:14:51.620Z,81.90
2023-04-12T05:15:49.324Z,82.00
2023-04-12T05:16:49.338Z,81.96
2023-04-12T05:17:49.304Z,81.55
2023-04-12T05:18:49.274Z,81.55
2023-04-12T05:19:49.286Z,81.14
2023-04-12T05:20:49.243Z,81.24
2023-04-12T05:21:49.477Z,81.55
2023-04-12T05:22:49.247Z,81.76
2023-04-12T05:23:49.217Z,82.06
2023-04-12T05:24:49.192Z,82.27
2023-04-12T05:25:49.227Z,82.68
2023-04-12T05:26:49.177Z,82.78
2023-04-12T05:27:51.391Z,83.19
2023-04-12T05:28:49.156Z,83.50
2023-04-12T05:29:49.159Z,83.64
2023-04-12T05:30:49.167Z,84.22
2023-04-12T05:31:49.152Z,84.01
2023-04-12T05:32:49.181Z,84.26
2023-04-12T05:33:49.117Z,84.67
2023-04-12T05:34:49.108Z,84.47
2023-04-12T05:35:49.124Z,85.28
2023-04-12T05:36:49.295Z,85.70
2023-04-12T05:37:49.055Z,85.70
2023-04-12T05:38:49.061Z,86.11
2023-04-12T05:39:49.040Z,86.32
2023-04-12T05:40:49.024Z,86.46
2023-04-12T05:41:49.044Z,86.21
2023-04-12T05:42:49.040Z,86.35
2023-04-12T05:43:49.001Z,86.56
2023-04-12T05:44:49.898Z,86.35
2023-04-12T05:45:49.044Z,87.49
2023-04-12T05:46:48.990Z,86.77
2023-04-12T05:47:48.993Z,86.97
2023-04-12T05:48:48.950Z,86.00
2023-04-12T05:49:48.958Z,86.83
2023-04-12T05:50:48.909Z,86.72
2023-04-12T05:51:48.969Z,86.83
2023-04-12T05:52:48.897Z,86.72
2023-04-12T05:53:48.896Z,87.34
2023-04-12T05:54:48.889Z,86.77
2023-04-12T05:55:48.867Z,87.49
2023-04-12T05:56:48.891Z,86.87
2023-04-12T05:57:49.098Z,87.18
2023-04-12T05:58:48.848Z,87.59
2023-04-12T05:59:48.911Z,86.77
2023-04-12T06:00:48.901Z,87.18
2023-04-12T06:01:48.882Z,87.69
2023-04-12T06:02:49.159Z,87.49
2023-04-12T06:03:48.947Z,87.28
2023-04-12T06:04:51.424Z,87.07
2023-04-12T06:05:48.774Z,86.93
2023-04-12T06:06:48.770Z,87.24
2023-04-12T06:07:48.805Z,87.04
2023-04-12T06:08:48.736Z,87.85
2023-04-12T06:09:48.733Z,88.00
2023-04-12T06:10:48.704Z,88.20
2023-04-12T06:11:48.703Z,88.41
2023-04-12T06:12:48.721Z,88.62
2023-04-12T06:13:48.976Z,88.51
2023-04-12T06:14:48.668Z,88.62
2023-04-12T06:15:48.720Z,89.03
2023-04-12T06:16:48.650Z,89.85
2023-04-12T06:17:48.695Z,89.44
2023-04-12T06:18:48.634Z,89.13
2023-04-12T06:19:48.629Z,90.47
2023-04-12T06:20:48.619Z,89.85
2023-04-12T06:21:48.605Z,89.13
2023-04-12T06:22:48.611Z,89.54
2023-04-12T06:23:48.600Z,89.85
2023-04-12T06:24:48.587Z,90.26
2023-04-12T06:25:48.568Z,89.64
2023-04-12T06:26:48.556Z,89.34
2023-04-12T06:27:48.554Z,89.44
2023-04-12T06:28:48.571Z,89.34
2023-04-12T06:29:48.511Z,89.44
2023-04-12T06:30:48.487Z,89.09
2023-04-12T06:31:48.732Z,88.57
2023-04-12T06:32:48.564Z,89.09
2023-04-12T06:33:48.518Z,88.89
2023-04-12T06:34:48.474Z,89.50
2023-04-12T06:35:48.542Z,89.09
2023-04-12T06:36:55.180Z,88.57
2023-04-12T06:37:48.485Z,88.27
2023-04-12T06:38:48.413Z,88.78
2023-04-12T06:39:48.483Z,88.68
2023-04-12T06:40:48.392Z,88.78
2023-04-12T06:41:48.427Z,88.68
2023-04-12T06:42:48.362Z,88.89
2023-04-12T06:43:48.631Z,88.89
2023-04-12T06:44:48.348Z,89.09
2023-04-12T06:45:48.347Z,89.09
2023-04-12T06:46:48.404Z,88.68
2023-04-12T06:47:48.386Z,89.09
2023-04-12T06:48:48.426Z,88.78
2023-04-12T06:49:48.570Z,88.57
2023-04-12T06:50:49.323Z,89.29
2023-04-12T06:51:47.320Z,88.98
2023-04-12T06:52:48.290Z,88.89
2023-04-12T06:59:31.622Z,89.50
2023-04-12T07:02:31.285Z,89.60
2023-04-12T07:03:32.185Z,90.38
2023-04-12T07:04:32.002Z,89.91
2023-04-12T07:05:31.973Z,88.98
2023-04-12T07:08:01.538Z,89.15
2023-04-12T07:09:02.394Z,89.15
2023-04-12T07:10:02.493Z,89.04
2023-04-12T07:11:14.615Z,88.23
2023-04-12T07:12:02.421Z,88.53
2023-04-12T07:13:02.361Z,89.25
2023-04-12T07:14:02.386Z,88.95
2023-04-12T07:15:02.380Z,88.74
2023-04-12T07:16:02.386Z,89.46
2023-04-12T07:18:23.645Z,89.15
2023-04-12T07:19:24.574Z,89.87
2023-04-12T07:20:25.579Z,89.87
2023-04-12T07:21:24.563Z,90.08
2023-04-12T07:22:24.561Z,90.28
2023-04-12T07:23:24.819Z,89.87
2023-04-12T07:24:24.546Z,90.28
2023-04-12T07:25:25.126Z,90.48
2023-04-12T07:26:24.518Z,89.97
2023-04-12T07:27:24.507Z,89.87
2023-04-12T07:28:24.508Z,90.80
2023-04-12T07:29:24.496Z,91.00
2023-04-12T07:30:24.469Z,90.59
2023-04-12T07:31:24.447Z,91.35
2023-04-12T07:32:24.533Z,91.14
2023-04-12T07:33:24.547Z,90.69
2023-04-12T07:34:24.512Z,91.41
2023-04-12T07:35:24.410Z,91.61
2023-04-12T07:36:24.422Z,90.89
2023-04-12T07:37:24.373Z,91.31
2023-04-12T07:38:24.393Z,90.59
2023-04-12T07:39:24.409Z,90.59
2023-04-12T07:40:24.367Z,90.69
2023-04-12T07:41:24.399Z,90.18
2023-04-12T07:42:24.342Z,90.08
2023-04-12T07:43:24.322Z,90.59
2023-04-12T07:44:24.334Z,90.59
2023-04-12T07:45:26.906Z,91.00
2023-04-12T07:46:24.327Z,91.61
2023-04-12T07:47:24.388Z,92.13
2023-04-12T07:48:24.289Z,90.80
2023-04-12T07:49:24.313Z,90.80
2023-04-12T07:50:24.266Z,91.31
2023-04-12T07:51:24.278Z,91.51
2023-04-12T07:52:24.233Z,91.82
2023-04-12T07:53:24.220Z,91.51
2023-04-12T07:54:24.227Z,92.44
2023-04-12T07:55:24.253Z,91.93
2023-04-12T07:56:24.208Z,92.85
2023-04-12T07:57:24.184Z,93.16
2023-04-12T07:58:24.243Z,93.16
2023-04-12T07:59:24.151Z,92.27
2023-04-12T08:00:24.164Z,92.33
2023-04-12T08:01:24.147Z,92.03
2023-04-12T08:02:24.195Z,92.23
2023-04-12T08:03:24.186Z,92.33
2023-04-12T08:04:24.184Z,92.64
2023-04-12T08:05:24.196Z,91.41
2023-04-12T08:06:24.121Z,91.31
2023-04-12T08:07:24.131Z,92.33
2023-04-12T08:08:24.078Z,92.03
2023-04-12T08:09:24.121Z,91.82
2023-04-12T08:10:24.051Z,92.23
2023-04-12T08:11:24.296Z,92.03
2023-04-12T08:12:24.070Z,92.74
2023-04-12T08:13:24.034Z,92.74
2023-04-12T08:14:24.014Z,92.33
2023-04-12T08:15:24.003Z,92.23
2023-04-12T08:16:24.116Z,92.23
2023-04-12T08:17:23.989Z,92.74
2023-04-12T08:18:23.961Z,92.64
2023-04-12T08:19:23.955Z,92.33
2023-04-12T08:20:23.965Z,92.08
2023-04-12T08:21:23.955Z,91.88
2023-04-12T08:22:23.949Z,91.57
2023-04-12T08:23:23.897Z,92.04
2023-04-12T08:24:23.957Z,91.53
2023-04-12T08:25:23.891Z,91.74
2023-04-12T08:26:23.877Z,91.33
2023-04-12T08:27:23.918Z,92.04
2023-04-12T08:28:23.915Z,91.53
2023-04-12T08:29:23.870Z,91.74
2023-04-12T08:30:23.862Z,92.19
2023-04-12T08:31:23.913Z,92.91
2023-04-12T08:32:24.488Z,92.91
2023-04-12T08:33:23.859Z,93.42
2023-04-12T08:34:23.898Z,92.91
2023-04-12T08:35:23.786Z,93.21
2023-04-12T08:36:23.820Z,93.01
2023-04-12T08:37:23.791Z,93.05
2023-04-12T08:38:30.980Z,92.85
2023-04-12T08:39:23.752Z,92.91
2023-04-12T08:40:23.750Z,93.73
2023-04-12T08:41:23.722Z,94.04
2023-04-12T08:42:23.719Z,94.04
2023-04-12T08:43:23.705Z,93.01
2023-04-12T08:44:23.719Z,93.52
2023-04-12T08:45:23.716Z,93.63
2023-04-12T08:46:23.704Z,93.12
2023-04-12T08:47:23.727Z,93.32
2023-04-12T08:48:24.037Z,93.21
2023-04-12T08:49:23.661Z,92.35
2023-04-12T08:50:23.632Z,92.55
2023-04-12T08:51:23.617Z,92.76
2023-04-12T08:52:23.619Z,93.17
2023-04-12T08:53:23.607Z,92.21
2023-04-12T08:54:23.637Z,91.69
2023-04-12T08:55:23.664Z,92.41
2023-04-12T08:56:23.607Z,93.33
2023-04-12T08:57:23.559Z,92.72
2023-04-12T08:58:23.594Z,92.61
2023-04-12T08:59:23.579Z,91.69
2023-04-12T09:00:23.584Z,91.90
2023-04-12T09:01:23.658Z,91.74
2023-04-12T09:02:23.722Z,91.74
2023-04-12T09:03:24.332Z,91.94
2023-04-12T09:04:23.765Z,92.04
2023-04-12T09:05:23.648Z,92.25
2023-04-12T09:06:23.536Z,92.55
2023-04-12T09:07:23.629Z,93.68
2023-04-12T09:08:23.534Z,93.38
2023-04-12T09:09:23.516Z,93.48
2023-04-12T09:10:23.665Z,93.79
2023-04-12T09:11:23.440Z,94.45
2023-04-12T09:12:23.443Z,94.96
2023-04-12T09:13:23.680Z,94.81
2023-04-12T09:14:23.664Z,94.96
2023-04-12T09:15:23.418Z,95.06
2023-04-12T09:16:23.499Z,95.57
2023-04-12T09:17:23.456Z,94.96
2023-04-12T09:18:23.351Z,94.76
2023-04-12T09:19:23.357Z,94.65
2023-04-12T09:20:23.403Z,93.99
2023-04-12T09:21:23.398Z,94.61
2023-04-12T09:22:23.317Z,94.10
2023-04-12T09:23:23.326Z,94.76
2023-04-12T09:24:23.303Z,94.65
2023-04-12T09:25:23.301Z,95.06
2023-04-12T09:26:23.347Z,95.78
2023-04-12T09:27:23.262Z,95.57
2023-04-12T09:28:23.289Z,95.47
2023-04-12T09:29:23.254Z,95.57
2023-04-12T09:30:23.229Z,95.89
2023-04-12T09:31:23.281Z,94.71
2023-04-12T09:32:23.955Z,95.53
2023-04-12T09:33:23.253Z,94.40
2023-04-12T09:34:23.893Z,95.23
2023-04-12T09:35:23.927Z,95.23
2023-04-12T09:36:23.208Z,94.61
2023-04-12T09:37:23.214Z,95.12
2023-04-12T09:38:23.177Z,95.94
2023-04-12T09:39:23.154Z,95.74
2023-04-12T09:40:23.292Z,96.04
2023-04-12T09:41:26.900Z,96.45
2023-04-12T09:42:33.405Z,96.25
2023-04-12T09:43:23.187Z,96.15
2023-04-12T09:44:23.077Z,95.43
2023-04-12T09:45:24.130Z,95.12
2023-04-12T09:46:23.441Z,95.32
2023-04-12T09:47:23.082Z,94.71
2023-04-12T09:48:23.040Z,95.64
2023-04-12T09:49:23.053Z,96.04
2023-04-12T09:50:23.214Z,94.20
2023-04-12T09:51:23.019Z,93.89
2023-04-12T09:52:23.065Z,95.18
2023-04-12T09:53:22.992Z,94.87
2023-04-12T09:54:22.974Z,95.07
2023-04-12T09:55:23.176Z,94.87
2023-04-12T09:56:22.963Z,95.59
2023-04-12T09:57:22.953Z,96.31
2023-04-12T09:58:22.951Z,95.23
2023-04-12T09:59:22.936Z,94.71
2023-04-12T10:00:22.905Z,95.02
2023-04-12T10:01:23.052Z,95.18
2023-04-12T10:02:23.135Z,95.84
2023-04-12T10:03:23.015Z,96.25
2023-04-12T10:04:23.035Z,96.04
2023-04-12T10:05:23.311Z,95.53
2023-04-12T10:06:22.869Z,95.59
2023-04-12T10:07:22.951Z,95.69
2023-04-12T10:08:23.029Z,96.10
2023-04-12T10:09:22.865Z,96.41
2023-04-12T10:10:23.251Z,95.95
2023-04-12T10:11:23.575Z,96.26
2023-04-12T10:12:22.900Z,95.75
2023-04-12T10:13:22.860Z,94.83
2023-04-12T10:14:22.926Z,93.86
2023-04-12T10:15:22.878Z,94.48
2023-04-12T10:16:22.792Z,94.68
2023-04-12T10:17:22.816Z,94.74
2023-04-12T10:18:22.775Z,95.25
2023-04-12T10:19:22.749Z,93.98
2023-04-12T10:20:24.821Z,93.22
2023-04-12T10:21:22.711Z,93.18
2023-04-12T10:22:22.730Z,93.18
2023-04-12T10:23:22.728Z,92.83
2023-04-12T10:24:22.713Z,92.88
2023-04-12T10:25:22.701Z,91.05
2023-04-12T10:26:22.800Z,89.92
2023-04-12T10:27:22.677Z,90.84
2023-04-12T10:28:22.621Z,90.08
2023-04-12T10:29:22.733Z,89.98
2023-04-12T10:30:22.618Z,90.75
2023-04-12T10:31:22.754Z,90.66
2023-04-12T10:32:22.650Z,88.57
2023-04-12T10:33:22.715Z,89.90
2023-04-12T10:34:22.559Z,88.26
2023-04-12T10:35:22.598Z,88.93
2023-04-12T10:36:22.597Z,87.82
2023-04-12T10:37:22.548Z,87.35
2023-04-12T10:38:22.526Z,86.43
2023-04-12T10:39:22.534Z,86.67
2023-04-12T10:40:22.513Z,87.08
2023-04-12T10:41:22.584Z,88.00
2023-04-12T10:42:22.507Z,85.08
2023-04-12T10:43:22.503Z,87.94
2023-04-12T10:44:22.505Z,89.88
2023-04-12T10:45:22.486Z,87.57
2023-04-12T10:46:22.511Z,89.41
2023-04-12T10:47:22.582Z,92.01
2023-04-12T10:48:22.543Z,90.37
2023-04-12T10:49:22.468Z,90.82
2023-04-12T10:50:22.418Z,90.82
2023-04-12T10:51:22.842Z,90.31
2023-04-12T10:52:22.385Z,90.82
2023-04-12T10:53:22.453Z,91.74
2023-04-12T10:54:22.380Z,91.74
2023-04-12T10:55:22.378Z,92.19
2023-04-12T10:56:22.579Z,91.48
2023-04-12T10:57:22.383Z,92.65
2023-04-12T10:58:22.409Z,92.03
2023-04-12T10:59:25.561Z,90.70
2023-04-12T11:00:22.433Z,92.24
2023-04-12T11:01:22.392Z,91.93
2023-04-12T11:02:22.444Z,93.67
2023-04-12T11:03:22.646Z,93.20
2023-04-12T11:04:22.530Z,91.77
2023-04-12T11:06:45.315Z,92.18
2023-04-12T11:07:46.219Z,93.00
2023-04-12T11:08:46.221Z,93.20
2023-04-12T11:09:46.215Z,91.77
2023-04-12T11:10:46.398Z,91.67
2023-04-12T11:11:46.241Z,90.03
2023-04-12T11:12:46.154Z,91.05
2023-04-12T11:13:46.438Z,87.16
2023-04-12T11:14:46.193Z,88.90
2023-04-12T11:15:46.495Z,88.08
2023-04-12T11:16:46.245Z,89.15
2023-04-12T11:17:46.466Z,89.36
2023-04-12T11:18:46.470Z,88.94
2023-04-12T11:19:46.135Z,88.39
2023-04-12T11:20:46.138Z,88.29
2023-04-12T11:21:46.098Z,88.18
2023-04-12T11:22:46.535Z,86.40
2023-04-12T11:23:46.076Z,85.58
2023-04-12T11:24:46.092Z,87.84
2023-04-12T11:25:46.095Z,89.94
2023-04-12T11:26:46.019Z,85.75
2023-04-12T11:27:46.003Z,87.14
2023-04-12T11:28:45.999Z,89.18
2023-04-12T11:29:45.987Z,85.40
2023-04-12T11:30:46.343Z,86.32
2023-04-12T11:31:46.126Z,87.59
2023-04-12T11:32:45.981Z,85.96
2023-04-12T11:33:45.955Z,85.24
2023-04-12T11:34:45.951Z,85.14
2023-04-12T11:35:45.919Z,86.05
2023-04-12T11:36:45.926Z,84.72
2023-04-12T11:37:45.945Z,87.43
2023-04-12T11:38:45.962Z,86.30
2023-04-12T11:39:45.985Z,86.04
2023-04-12T11:40:45.881Z,85.11
2023-04-12T11:41:45.855Z,87.57
2023-04-12T11:42:45.868Z,86.65
2023-04-12T11:43:45.864Z,87.88
2023-04-12T11:44:55.205Z,85.38
2023-04-12T11:45:45.838Z,85.79
2023-04-12T11:46:45.817Z,87.59
2023-04-12T11:47:45.852Z,88.10
2023-04-12T11:48:45.813Z,88.20
2023-04-12T11:49:45.774Z,88.71
2023-04-12T11:50:48.373Z,86.73
2023-04-12T11:51:48.241Z,87.41
2023-04-12T11:52:46.618Z,87.20
2023-04-12T11:53:53.770Z,87.20
2023-04-12T11:54:45.744Z,86.14
2023-04-12T11:55:45.742Z,85.94
2023-04-12T11:56:45.720Z,85.63
2023-04-12T11:59:01.542Z,83.48
2023-04-12T12:00:03.086Z,84.20
2023-04-12T12:01:03.582Z,85.22
2023-04-12T12:02:10.879Z,85.28
2023-04-12T12:03:07.304Z,86.82
2023-04-12T12:04:03.166Z,84.77
2023-04-12T12:05:02.696Z,87.84
2023-04-12T12:06:02.595Z,85.08
2023-04-12T12:07:02.570Z,82.63
2023-04-12T12:08:02.426Z,81.71
2023-04-12T12:09:02.400Z,84.06
2023-04-12T12:10:02.470Z,84.77
2023-04-12T12:11:07.863Z,87.06
2023-04-12T12:12:02.364Z,86.96
2023-04-12T12:13:02.358Z,88.45
2023-04-12T12:14:02.338Z,87.23
2023-04-12T12:15:02.350Z,85.08
2023-04-12T12:16:02.395Z,87.43
2023-04-12T12:17:02.345Z,84.71
2023-04-12T12:18:02.542Z,87.88
2023-04-12T12:19:02.300Z,84.50
2023-04-12T12:20:02.288Z,84.30
2023-04-12T12:21:02.330Z,85.42
2023-04-12T12:22:02.287Z,83.89
2023-04-12T12:23:02.284Z,85.49
2023-04-12T12:24:02.333Z,85.89
2023-04-12T12:25:02.215Z,84.26
2023-04-12T12:26:14.181Z,84.06
2023-04-12T12:27:02.259Z,83.75
2023-04-12T12:28:02.309Z,83.81
2023-04-12T12:29:02.180Z,83.20
2023-04-12T12:30:02.204Z,83.20
2023-04-12T12:31:02.220Z,84.94
2023-04-12T12:32:02.164Z,84.63
2023-04-12T12:33:02.254Z,85.21
2023-04-12T12:34:04.194Z,85.30
2023-04-12T12:35:02.190Z,85.71
2023-04-12T12:36:02.239Z,87.24
2023-04-12T12:37:02.107Z,85.21
2023-04-12T12:38:02.090Z,86.29
2023-04-12T12:39:02.094Z,83.73
2023-04-12T12:40:02.104Z,85.57
2023-04-12T12:41:02.083Z,85.63
2023-04-12T12:42:02.107Z,79.72
2023-04-12T12:43:02.082Z,82.17
2023-04-12T12:44:02.028Z,84.31
2023-04-12T12:45:02.029Z,83.33
2023-04-12T12:46:02.006Z,80.07
2023-04-12T12:47:10.104Z,83.43
2023-04-12T12:48:02.298Z,82.86
2023-04-12T12:49:02.004Z,82.35
2023-04-12T12:50:02.005Z,78.77
2023-04-12T12:51:01.965Z,81.70
2023-04-12T12:52:01.957Z,84.45
2023-04-12T12:53:02.004Z,83.53
2023-04-12T12:54:01.975Z,84.11
2023-04-12T12:55:01.910Z,83.59
2023-04-12T12:56:01.918Z,81.15
2023-04-12T12:57:01.902Z,82.17
2023-04-12T12:58:08.142Z,82.03
2023-04-12T12:59:01.884Z,81.72
2023-04-12T13:00:01.863Z,82.64
2023-04-12T13:01:01.862Z,80.77
2023-04-12T13:02:02.099Z,80.87
2023-04-12T13:03:02.268Z,80.26
2023-04-12T13:04:01.911Z,80.60
2023-04-12T13:05:01.820Z,79.24
2023-04-12T13:06:01.810Z,78.63